Pagina principale
METAR-TAF:

METAR-TAF

Aeroporti :

Aeroporto di Cordoba-Ing. A. L. V. Taravella

Córdoba, Argentina

latitudine: 31-19S, longitudine: 064-13W, altezza: 484 m

Osservazione

Il bollettino è stato emesso 59 minuti fa, alle 23:00 UTC
Vento 7 kt da nord
Temperature 10°C
Umidità 82%
Pressione 1023 hPa
Visibilità 10 km o più
Poco nuvoloso ad un'altezza di 3500 ft

METAR: SACO 232300Z 36007KT 9999 FEW035 10/07 Q1023 NOSIG

Ora: 20:59 (23:59 UTC)

Previsione

Il bollettino è stato emesso 59 minuti fa, alle 23:00 UTC
Previsione valida dal 24 alle 00 UTC al 24 alle 24 UTC
Vento 5 kt da nord
Visibilità 10 km o più
Nubi sparse ad un'altezza di 2500 ft
Probabilità 30% :
Temporaneamente
dal 24 alle 08 UTC al 24 alle 12 UTC
Vento 5 kt da nord/nord-ovest
Visibilità: 2000 m
Poco nuvoloso ad un'altezza di 2000 ft
foschia

TAF: SACO 232300Z 2400/2424 36005KT 9999 SCT025 TX20/2418Z TN06/2410Z PROB30 TEMPO 2408/2412 34005KT 2000 BR FEW020

Osservazioni e previsioni meteorologiche di più di 4000 aeroporti (messaggi METAR e TAF).

Le stazioni disponibili sono rappresentate dai dischi gialli e rossi sulla carta.

Puntare il mouse per vedere il nome della stazione.

Clicca sopra per visualizzare le osservazioni e previsioni meteorologiche.

Per cambiare la mappa : fare clic sui pulsanti verdi con una croce nera per ingrandire, il pulsante verde con un trattino per diminuire, o sulla freccia verde per le mappe adiacenti.


METAR-TAF: